sensor_id;sensor_type;location;lat;lon;timestamp;P1;durP1;ratioP1;P2;durP2;ratioP2
21822;SDS011;11074;48.596;9.238;2024-02-26T00:01:14;2.13;;;1.20;;
21822;SDS011;11074;48.596;9.238;2024-02-26T00:03:39;1.90;;;1.02;;
21822;SDS011;11074;48.596;9.238;2024-02-26T00:06:07;2.28;;;1.08;;
21822;SDS011;11074;48.596;9.238;2024-02-26T00:08:32;2.45;;;1.13;;
21822;SDS011;11074;48.596;9.238;2024-02-26T00:10:57;1.63;;;1.13;;
21822;SDS011;11074;48.596;9.238;2024-02-26T00:13:23;2.80;;;1.30;;
21822;SDS011;11074;48.596;9.238;2024-02-26T00:15:48;3.65;;;1.25;;
21822;SDS011;11074;48.596;9.238;2024-02-26T00:18:13;3.13;;;1.52;;
21822;SDS011;11074;48.596;9.238;2024-02-26T00:20:39;2.63;;;1.50;;
21822;SDS011;11074;48.596;9.238;2024-02-26T00:23:05;4.55;;;1.75;;
21822;SDS011;11074;48.596;9.238;2024-02-26T00:25:30;2.47;;;1.60;;
21822;SDS011;11074;48.596;9.238;2024-02-26T00:27:55;3.27;;;1.10;;
21822;SDS011;11074;48.596;9.238;2024-02-26T00:30:21;2.03;;;1.00;;
21822;SDS011;11074;48.596;9.238;2024-02-26T00:32:47;1.90;;;1.00;;
21822;SDS011;11074;48.596;9.238;2024-02-26T00:35:12;2.27;;;1.00;;
21822;SDS011;11074;48.596;9.238;2024-02-26T00:37:39;2.92;;;0.90;;
21822;SDS011;11074;48.596;9.238;2024-02-26T00:40:04;1.65;;;0.80;;
21822;SDS011;11074;48.596;9.238;2024-02-26T00:42:31;1.70;;;1.00;;
21822;SDS011;11074;48.596;9.238;2024-02-26T00:44:56;1.73;;;1.00;;
21822;SDS011;11074;48.596;9.238;2024-02-26T00:47:22;2.60;;;1.50;;
21822;SDS011;11074;48.596;9.238;2024-02-26T00:49:47;3.67;;;2.10;;
21822;SDS011;11074;48.596;9.238;2024-02-26T00:52:12;2.73;;;1.67;;
21822;SDS011;11074;48.596;9.238;2024-02-26T00:54:37;1.97;;;1.30;;
21822;SDS011;11074;48.596;9.238;2024-02-26T00:57:03;1.67;;;1.10;;
21822;SDS011;11074;48.596;9.238;2024-02-26T00:59:28;2.25;;;1.30;;
21822;SDS011;11074;48.596;9.238;2024-02-26T01:01:53;1.80;;;0.93;;
21822;SDS011;11074;48.596;9.238;2024-02-26T01:04:18;3.13;;;1.30;;
21822;SDS011;11074;48.596;9.238;2024-02-26T01:06:44;1.75;;;0.98;;
21822;SDS011;11074;48.596;9.238;2024-02-26T01:09:09;2.13;;;1.00;;
21822;SDS011;11074;48.596;9.238;2024-02-26T01:11:35;2.53;;;1.00;;
21822;SDS011;11074;48.596;9.238;2024-02-26T01:14:01;3.13;;;1.30;;
21822;SDS011;11074;48.596;9.238;2024-02-26T01:16:26;2.37;;;1.00;;
21822;SDS011;11074;48.596;9.238;2024-02-26T01:18:54;3.05;;;1.17;;
21822;SDS011;11074;48.596;9.238;2024-02-26T01:21:19;1.63;;;1.00;;
21822;SDS011;11074;48.596;9.238;2024-02-26T01:23:44;2.55;;;0.80;;
21822;SDS011;11074;48.596;9.238;2024-02-26T01:26:10;2.03;;;0.90;;
21822;SDS011;11074;48.596;9.238;2024-02-26T01:28:35;2.75;;;1.10;;
21822;SDS011;11074;48.596;9.238;2024-02-26T01:31:01;1.87;;;0.97;;
21822;SDS011;11074;48.596;9.238;2024-02-26T01:33:26;1.53;;;0.90;;
21822;SDS011;11074;48.596;9.238;2024-02-26T01:35:51;1.80;;;1.08;;
21822;SDS011;11074;48.596;9.238;2024-02-26T01:38:18;2.08;;;1.00;;
21822;SDS011;11074;48.596;9.238;2024-02-26T01:40:43;1.90;;;0.83;;
21822;SDS011;11074;48.596;9.238;2024-02-26T01:43:08;1.60;;;0.87;;
21822;SDS011;11074;48.596;9.238;2024-02-26T01:45:33;1.17;;;0.80;;
21822;SDS011;11074;48.596;9.238;2024-02-26T01:47:59;1.20;;;0.90;;
21822;SDS011;11074;48.596;9.238;2024-02-26T01:50:25;1.83;;;0.93;;
21822;SDS011;11074;48.596;9.238;2024-02-26T01:52:51;1.58;;;0.70;;
21822;SDS011;11074;48.596;9.238;2024-02-26T01:55:18;2.00;;;0.90;;
21822;SDS011;11074;48.596;9.238;2024-02-26T01:57:45;2.88;;;1.00;;
21822;SDS011;11074;48.596;9.238;2024-02-26T02:00:12;1.92;;;1.00;;
21822;SDS011;11074;48.596;9.238;2024-02-26T02:02:39;3.70;;;1.05;;
21822;SDS011;11074;48.596;9.238;2024-02-26T02:05:06;1.70;;;0.70;;
21822;SDS011;11074;48.596;9.238;2024-02-26T02:07:34;0.85;;;0.70;;
21822;SDS011;11074;48.596;9.238;2024-02-26T02:10:00;1.80;;;1.10;;
21822;SDS011;11074;48.596;9.238;2024-02-26T02:12:25;2.53;;;1.05;;
21822;SDS011;11074;48.596;9.238;2024-02-26T02:14:52;2.15;;;1.13;;
21822;SDS011;11074;48.596;9.238;2024-02-26T02:17:17;1.95;;;1.00;;
21822;SDS011;11074;48.596;9.238;2024-02-26T02:19:42;1.43;;;1.00;;
21822;SDS011;11074;48.596;9.238;2024-02-26T02:22:08;1.90;;;0.85;;
21822;SDS011;11074;48.596;9.238;2024-02-26T02:24:33;1.67;;;1.20;;
21822;SDS011;11074;48.596;9.238;2024-02-26T02:26:58;3.00;;;1.20;;
21822;SDS011;11074;48.596;9.238;2024-02-26T02:29:24;1.30;;;0.90;;
21822;SDS011;11074;48.596;9.238;2024-02-26T02:31:49;2.92;;;1.10;;
21822;SDS011;11074;48.596;9.238;2024-02-26T02:34:15;3.67;;;0.98;;
21822;SDS011;11074;48.596;9.238;2024-02-26T02:36:53;2.10;;;1.00;;
21822;SDS011;11074;48.596;9.238;2024-02-26T02:39:19;2.05;;;1.10;;
21822;SDS011;11074;48.596;9.238;2024-02-26T02:41:45;2.42;;;1.10;;
21822;SDS011;11074;48.596;9.238;2024-02-26T02:44:11;3.08;;;1.20;;
21822;SDS011;11074;48.596;9.238;2024-02-26T02:46:36;2.17;;;1.05;;
21822;SDS011;11074;48.596;9.238;2024-02-26T02:49:02;2.90;;;1.40;;
21822;SDS011;11074;48.596;9.238;2024-02-26T02:51:27;1.80;;;1.05;;
21822;SDS011;11074;48.596;9.238;2024-02-26T02:53:52;3.07;;;1.20;;
21822;SDS011;11074;48.596;9.238;2024-02-26T02:56:18;2.38;;;1.30;;
21822;SDS011;11074;48.596;9.238;2024-02-26T02:58:43;1.98;;;1.10;;
21822;SDS011;11074;48.596;9.238;2024-02-26T03:01:09;2.55;;;1.35;;
21822;SDS011;11074;48.596;9.238;2024-02-26T03:03:34;2.67;;;1.20;;
21822;SDS011;11074;48.596;9.238;2024-02-26T03:06:01;2.22;;;1.25;;
21822;SDS011;11074;48.596;9.238;2024-02-26T03:08:27;2.15;;;1.17;;
21822;SDS011;11074;48.596;9.238;2024-02-26T03:10:52;2.08;;;1.10;;
21822;SDS011;11074;48.596;9.238;2024-02-26T03:13:18;2.97;;;1.23;;
21822;SDS011;11074;48.596;9.238;2024-02-26T03:15:43;2.30;;;1.00;;
21822;SDS011;11074;48.596;9.238;2024-02-26T03:18:08;2.10;;;1.20;;
21822;SDS011;11074;48.596;9.238;2024-02-26T03:20:33;2.97;;;1.23;;
21822;SDS011;11074;48.596;9.238;2024-02-26T03:22:59;3.13;;;1.33;;
21822;SDS011;11074;48.596;9.238;2024-02-26T03:25:24;2.55;;;1.23;;
21822;SDS011;11074;48.596;9.238;2024-02-26T03:27:49;3.13;;;1.33;;
21822;SDS011;11074;48.596;9.238;2024-02-26T03:30:15;2.22;;;1.15;;
21822;SDS011;11074;48.596;9.238;2024-02-26T03:32:40;2.47;;;1.52;;
21822;SDS011;11074;48.596;9.238;2024-02-26T03:35:06;3.20;;;1.47;;
21822;SDS011;11074;48.596;9.238;2024-02-26T03:37:32;2.47;;;1.23;;
21822;SDS011;11074;48.596;9.238;2024-02-26T03:39:58;2.95;;;1.67;;
21822;SDS011;11074;48.596;9.238;2024-02-26T03:42:23;3.08;;;1.45;;
21822;SDS011;11074;48.596;9.238;2024-02-26T03:44:49;3.10;;;1.55;;
21822;SDS011;11074;48.596;9.238;2024-02-26T03:47:14;3.00;;;1.30;;
21822;SDS011;11074;48.596;9.238;2024-02-26T03:49:39;3.37;;;1.73;;
21822;SDS011;11074;48.596;9.238;2024-02-26T03:52:05;4.38;;;1.50;;
21822;SDS011;11074;48.596;9.238;2024-02-26T03:54:30;3.13;;;1.52;;
21822;SDS011;11074;48.596;9.238;2024-02-26T03:56:55;4.72;;;1.50;;
21822;SDS011;11074;48.596;9.238;2024-02-26T03:59:21;2.63;;;1.42;;
21822;SDS011;11074;48.596;9.238;2024-02-26T04:01:48;5.90;;;1.60;;
21822;SDS011;11074;48.596;9.238;2024-02-26T04:04:14;2.90;;;1.40;;
21822;SDS011;11074;48.596;9.238;2024-02-26T04:06:40;2.80;;;1.40;;
21822;SDS011;11074;48.596;9.238;2024-02-26T04:09:09;5.10;;;1.65;;
21822;SDS011;11074;48.596;9.238;2024-02-26T04:11:35;2.60;;;1.30;;
21822;SDS011;11074;48.596;9.238;2024-02-26T04:14:00;3.83;;;1.33;;
21822;SDS011;11074;48.596;9.238;2024-02-26T04:16:26;2.00;;;1.20;;
21822;SDS011;11074;48.596;9.238;2024-02-26T04:18:51;3.03;;;1.42;;
21822;SDS011;11074;48.596;9.238;2024-02-26T04:21:18;4.25;;;1.58;;
21822;SDS011;11074;48.596;9.238;2024-02-26T04:23:43;3.20;;;1.50;;
21822;SDS011;11074;48.596;9.238;2024-02-26T04:26:09;2.85;;;1.35;;
21822;SDS011;11074;48.596;9.238;2024-02-26T04:28:34;3.10;;;1.60;;
21822;SDS011;11074;48.596;9.238;2024-02-26T04:31:00;3.42;;;1.33;;
21822;SDS011;11074;48.596;9.238;2024-02-26T04:33:25;2.65;;;1.50;;
21822;SDS011;11074;48.596;9.238;2024-02-26T04:35:51;4.15;;;1.73;;
21822;SDS011;11074;48.596;9.238;2024-02-26T04:38:16;2.25;;;1.45;;
21822;SDS011;11074;48.596;9.238;2024-02-26T04:40:41;3.15;;;1.70;;
21822;SDS011;11074;48.596;9.238;2024-02-26T04:43:07;1.88;;;1.27;;
21822;SDS011;11074;48.596;9.238;2024-02-26T04:45:32;3.63;;;1.58;;
21822;SDS011;11074;48.596;9.238;2024-02-26T04:47:57;4.30;;;1.30;;
21822;SDS011;11074;48.596;9.238;2024-02-26T04:50:24;2.90;;;1.55;;
21822;SDS011;11074;48.596;9.238;2024-02-26T04:52:49;2.93;;;1.57;;
21822;SDS011;11074;48.596;9.238;2024-02-26T04:55:15;2.53;;;1.40;;
21822;SDS011;11074;48.596;9.238;2024-02-26T04:57:40;1.83;;;1.30;;
21822;SDS011;11074;48.596;9.238;2024-02-26T05:00:05;5.18;;;1.50;;
21822;SDS011;11074;48.596;9.238;2024-02-26T05:02:31;2.38;;;1.38;;
21822;SDS011;11074;48.596;9.238;2024-02-26T05:04:58;2.55;;;1.30;;
21822;SDS011;11074;48.596;9.238;2024-02-26T05:07:24;3.05;;;1.60;;
21822;SDS011;11074;48.596;9.238;2024-02-26T05:09:49;5.78;;;1.50;;
21822;SDS011;11074;48.596;9.238;2024-02-26T05:12:14;3.25;;;1.48;;
21822;SDS011;11074;48.596;9.238;2024-02-26T05:14:40;2.17;;;1.40;;
21822;SDS011;11074;48.596;9.238;2024-02-26T05:17:05;2.42;;;1.50;;
21822;SDS011;11074;48.596;9.238;2024-02-26T05:19:31;3.25;;;1.67;;
21822;SDS011;11074;48.596;9.238;2024-02-26T05:21:56;2.23;;;1.57;;
21822;SDS011;11074;48.596;9.238;2024-02-26T05:24:22;3.50;;;1.77;;
21822;SDS011;11074;48.596;9.238;2024-02-26T05:26:47;4.50;;;1.75;;
21822;SDS011;11074;48.596;9.238;2024-02-26T05:29:13;3.17;;;1.90;;
21822;SDS011;11074;48.596;9.238;2024-02-26T05:31:38;3.28;;;1.60;;
21822;SDS011;11074;48.596;9.238;2024-02-26T05:34:03;4.63;;;1.80;;
21822;SDS011;11074;48.596;9.238;2024-02-26T05:36:29;3.20;;;1.97;;
21822;SDS011;11074;48.596;9.238;2024-02-26T05:38:58;3.58;;;2.10;;
21822;SDS011;11074;48.596;9.238;2024-02-26T05:41:24;2.28;;;1.63;;
21822;SDS011;11074;48.596;9.238;2024-02-26T05:43:51;2.90;;;1.85;;
21822;SDS011;11074;48.596;9.238;2024-02-26T05:46:17;2.90;;;1.90;;
21822;SDS011;11074;48.596;9.238;2024-02-26T05:48:47;3.63;;;1.95;;
21822;SDS011;11074;48.596;9.238;2024-02-26T05:51:13;3.80;;;2.10;;
21822;SDS011;11074;48.596;9.238;2024-02-26T05:53:40;4.35;;;1.90;;
21822;SDS011;11074;48.596;9.238;2024-02-26T05:56:06;4.97;;;2.00;;
21822;SDS011;11074;48.596;9.238;2024-02-26T05:58:32;5.70;;;3.08;;
21822;SDS011;11074;48.596;9.238;2024-02-26T06:00:58;7.13;;;3.25;;
21822;SDS011;11074;48.596;9.238;2024-02-26T06:03:25;4.03;;;2.50;;
21822;SDS011;11074;48.596;9.238;2024-02-26T06:05:51;5.43;;;2.60;;
21822;SDS011;11074;48.596;9.238;2024-02-26T06:08:16;4.10;;;1.90;;
21822;SDS011;11074;48.596;9.238;2024-02-26T06:10:41;4.45;;;2.05;;
21822;SDS011;11074;48.596;9.238;2024-02-26T06:13:07;3.38;;;1.70;;
21822;SDS011;11074;48.596;9.238;2024-02-26T06:15:32;2.60;;;1.77;;
21822;SDS011;11074;48.596;9.238;2024-02-26T06:17:58;4.13;;;1.52;;
21822;SDS011;11074;48.596;9.238;2024-02-26T06:20:23;2.27;;;1.50;;
21822;SDS011;11074;48.596;9.238;2024-02-26T06:22:48;2.92;;;1.88;;
21822;SDS011;11074;48.596;9.238;2024-02-26T06:25:14;2.25;;;1.40;;
21822;SDS011;11074;48.596;9.238;2024-02-26T06:27:39;3.47;;;2.00;;
21822;SDS011;11074;48.596;9.238;2024-02-26T06:30:05;7.45;;;1.90;;
21822;SDS011;11074;48.596;9.238;2024-02-26T06:32:30;7.85;;;3.40;;
21822;SDS011;11074;48.596;9.238;2024-02-26T06:34:57;27.92;;;17.48;;
21822;SDS011;11074;48.596;9.238;2024-02-26T06:37:22;15.73;;;8.75;;
21822;SDS011;11074;48.596;9.238;2024-02-26T06:39:48;11.02;;;4.55;;
21822;SDS011;11074;48.596;9.238;2024-02-26T06:42:23;14.27;;;7.53;;
21822;SDS011;11074;48.596;9.238;2024-02-26T06:44:49;17.85;;;10.65;;
21822;SDS011;11074;48.596;9.238;2024-02-26T06:47:14;10.40;;;5.20;;
21822;SDS011;11074;48.596;9.238;2024-02-26T06:49:39;9.90;;;5.07;;
21822;SDS011;11074;48.596;9.238;2024-02-26T06:52:04;9.73;;;6.50;;
21822;SDS011;11074;48.596;9.238;2024-02-26T06:54:31;7.05;;;4.32;;
21822;SDS011;11074;48.596;9.238;2024-02-26T06:56:56;6.35;;;3.80;;
21822;SDS011;11074;48.596;9.238;2024-02-26T06:59:21;4.85;;;2.60;;
21822;SDS011;11074;48.596;9.238;2024-02-26T07:01:48;7.40;;;3.83;;
21822;SDS011;11074;48.596;9.238;2024-02-26T07:04:13;10.40;;;4.40;;
21822;SDS011;11074;48.596;9.238;2024-02-26T07:06:39;8.57;;;4.30;;
21822;SDS011;11074;48.596;9.238;2024-02-26T07:09:05;6.38;;;3.55;;
21822;SDS011;11074;48.596;9.238;2024-02-26T07:11:30;8.98;;;3.63;;
21822;SDS011;11074;48.596;9.238;2024-02-26T07:13:55;5.60;;;2.87;;
21822;SDS011;11074;48.596;9.238;2024-02-26T07:16:20;6.33;;;3.40;;
21822;SDS011;11074;48.596;9.238;2024-02-26T07:18:46;8.45;;;3.53;;
21822;SDS011;11074;48.596;9.238;2024-02-26T07:21:11;8.80;;;3.70;;
21822;SDS011;11074;48.596;9.238;2024-02-26T07:23:37;6.55;;;3.53;;
21822;SDS011;11074;48.596;9.238;2024-02-26T07:26:02;7.00;;;3.40;;
21822;SDS011;11074;48.596;9.238;2024-02-26T07:28:28;6.55;;;3.20;;
21822;SDS011;11074;48.596;9.238;2024-02-26T07:30:54;6.43;;;3.03;;
21822;SDS011;11074;48.596;9.238;2024-02-26T07:33:19;6.18;;;3.05;;
21822;SDS011;11074;48.596;9.238;2024-02-26T07:35:44;7.20;;;2.92;;
21822;SDS011;11074;48.596;9.238;2024-02-26T07:38:10;5.93;;;3.40;;
21822;SDS011;11074;48.596;9.238;2024-02-26T07:40:35;6.50;;;3.05;;
21822;SDS011;11074;48.596;9.238;2024-02-26T07:43:01;6.90;;;3.33;;
21822;SDS011;11074;48.596;9.238;2024-02-26T07:45:26;11.32;;;3.17;;
21822;SDS011;11074;48.596;9.238;2024-02-26T07:47:52;6.15;;;2.95;;
21822;SDS011;11074;48.596;9.238;2024-02-26T07:50:17;5.70;;;2.83;;
21822;SDS011;11074;48.596;9.238;2024-02-26T07:52:44;6.55;;;2.95;;
21822;SDS011;11074;48.596;9.238;2024-02-26T07:55:09;5.65;;;3.30;;
21822;SDS011;11074;48.596;9.238;2024-02-26T07:57:35;8.43;;;3.55;;
21822;SDS011;11074;48.596;9.238;2024-02-26T08:00:01;8.90;;;3.45;;
21822;SDS011;11074;48.596;9.238;2024-02-26T08:02:32;5.32;;;2.85;;
21822;SDS011;11074;48.596;9.238;2024-02-26T08:04:59;6.28;;;3.10;;
21822;SDS011;11074;48.596;9.238;2024-02-26T08:07:24;4.85;;;3.20;;
21822;SDS011;11074;48.596;9.238;2024-02-26T08:09:49;5.60;;;3.40;;
21822;SDS011;11074;48.596;9.238;2024-02-26T08:12:14;5.97;;;4.17;;
21822;SDS011;11074;48.596;9.238;2024-02-26T08:14:40;6.07;;;3.73;;
21822;SDS011;11074;48.596;9.238;2024-02-26T08:17:05;5.47;;;3.17;;
21822;SDS011;11074;48.596;9.238;2024-02-26T08:19:31;6.40;;;3.20;;
21822;SDS011;11074;48.596;9.238;2024-02-26T08:21:56;5.32;;;3.33;;
21822;SDS011;11074;48.596;9.238;2024-02-26T08:24:22;4.60;;;3.00;;
21822;SDS011;11074;48.596;9.238;2024-02-26T08:26:48;7.55;;;3.30;;
21822;SDS011;11074;48.596;9.238;2024-02-26T08:29:13;6.05;;;3.63;;
21822;SDS011;11074;48.596;9.238;2024-02-26T08:31:38;6.50;;;3.40;;
21822;SDS011;11074;48.596;9.238;2024-02-26T08:34:04;6.15;;;3.20;;
21822;SDS011;11074;48.596;9.238;2024-02-26T08:36:32;4.53;;;2.85;;
21822;SDS011;11074;48.596;9.238;2024-02-26T08:38:58;5.78;;;3.00;;
21822;SDS011;11074;48.596;9.238;2024-02-26T08:41:23;5.47;;;3.67;;
21822;SDS011;11074;48.596;9.238;2024-02-26T08:43:49;6.73;;;3.60;;
21822;SDS011;11074;48.596;9.238;2024-02-26T08:46:14;5.00;;;3.10;;
21822;SDS011;11074;48.596;9.238;2024-02-26T08:48:39;6.28;;;3.17;;
21822;SDS011;11074;48.596;9.238;2024-02-26T08:51:06;5.75;;;3.03;;
21822;SDS011;11074;48.596;9.238;2024-02-26T08:53:32;5.15;;;2.90;;
21822;SDS011;11074;48.596;9.238;2024-02-26T08:55:57;3.78;;;2.63;;
21822;SDS011;11074;48.596;9.238;2024-02-26T08:58:22;6.03;;;2.72;;
21822;SDS011;11074;48.596;9.238;2024-02-26T09:00:48;3.73;;;2.40;;
21822;SDS011;11074;48.596;9.238;2024-02-26T09:03:13;4.50;;;2.43;;
21822;SDS011;11074;48.596;9.238;2024-02-26T09:05:38;3.67;;;2.20;;
21822;SDS011;11074;48.596;9.238;2024-02-26T09:08:03;4.47;;;2.50;;
21822;SDS011;11074;48.596;9.238;2024-02-26T09:10:29;5.20;;;2.55;;
21822;SDS011;11074;48.596;9.238;2024-02-26T09:12:54;5.22;;;3.20;;
21822;SDS011;11074;48.596;9.238;2024-02-26T09:15:20;8.75;;;3.33;;
21822;SDS011;11074;48.596;9.238;2024-02-26T09:17:45;9.20;;;3.40;;
21822;SDS011;11074;48.596;9.238;2024-02-26T09:20:11;9.55;;;3.80;;
21822;SDS011;11074;48.596;9.238;2024-02-26T09:22:38;10.77;;;3.40;;
21822;SDS011;11074;48.596;9.238;2024-02-26T09:25:04;8.02;;;3.53;;
21822;SDS011;11074;48.596;9.238;2024-02-26T09:27:30;6.20;;;3.00;;
21822;SDS011;11074;48.596;9.238;2024-02-26T09:29:55;7.80;;;2.80;;
21822;SDS011;11074;48.596;9.238;2024-02-26T09:32:21;5.07;;;2.90;;
21822;SDS011;11074;48.596;9.238;2024-02-26T09:34:46;5.43;;;2.75;;
21822;SDS011;11074;48.596;9.238;2024-02-26T09:37:11;5.00;;;2.60;;
21822;SDS011;11074;48.596;9.238;2024-02-26T09:39:38;6.43;;;2.90;;
21822;SDS011;11074;48.596;9.238;2024-02-26T09:42:04;4.90;;;2.35;;
21822;SDS011;11074;48.596;9.238;2024-02-26T09:44:30;6.30;;;2.72;;
21822;SDS011;11074;48.596;9.238;2024-02-26T09:47:00;5.35;;;2.40;;
21822;SDS011;11074;48.596;9.238;2024-02-26T09:49:25;5.30;;;2.67;;
21822;SDS011;11074;48.596;9.238;2024-02-26T09:51:51;4.50;;;2.83;;
21822;SDS011;11074;48.596;9.238;2024-02-26T09:54:19;4.82;;;3.03;;
21822;SDS011;11074;48.596;9.238;2024-02-26T09:56:44;5.18;;;2.83;;
21822;SDS011;11074;48.596;9.238;2024-02-26T09:59:15;4.35;;;2.67;;
21822;SDS011;11074;48.596;9.238;2024-02-26T10:01:42;6.50;;;2.97;;
21822;SDS011;11074;48.596;9.238;2024-02-26T10:04:09;5.00;;;2.75;;
21822;SDS011;11074;48.596;9.238;2024-02-26T10:06:36;9.15;;;2.38;;
21822;SDS011;11074;48.596;9.238;2024-02-26T10:09:03;6.57;;;2.78;;
21822;SDS011;11074;48.596;9.238;2024-02-26T10:11:31;4.35;;;2.67;;
21822;SDS011;11074;48.596;9.238;2024-02-26T10:13:57;3.30;;;2.40;;
21822;SDS011;11074;48.596;9.238;2024-02-26T10:16:22;3.38;;;2.20;;
21822;SDS011;11074;48.596;9.238;2024-02-26T10:18:51;5.55;;;2.47;;
21822;SDS011;11074;48.596;9.238;2024-02-26T10:21:19;4.35;;;2.50;;
21822;SDS011;11074;48.596;9.238;2024-02-26T10:23:45;4.45;;;2.20;;
21822;SDS011;11074;48.596;9.238;2024-02-26T10:26:12;4.78;;;3.00;;
21822;SDS011;11074;48.596;9.238;2024-02-26T10:28:39;4.32;;;2.15;;
21822;SDS011;11074;48.596;9.238;2024-02-26T10:31:05;3.28;;;1.95;;
21822;SDS011;11074;48.596;9.238;2024-02-26T10:33:32;3.50;;;1.92;;
21822;SDS011;11074;48.596;9.238;2024-02-26T10:36:00;4.35;;;2.08;;
21822;SDS011;11074;48.596;9.238;2024-02-26T10:38:26;4.60;;;2.05;;
21822;SDS011;11074;48.596;9.238;2024-02-26T10:40:51;4.38;;;2.13;;
21822;SDS011;11074;48.596;9.238;2024-02-26T10:43:17;4.45;;;2.10;;
21822;SDS011;11074;48.596;9.238;2024-02-26T10:45:43;5.13;;;2.10;;
21822;SDS011;11074;48.596;9.238;2024-02-26T10:48:13;3.88;;;2.35;;
21822;SDS011;11074;48.596;9.238;2024-02-26T10:50:39;4.95;;;2.10;;
21822;SDS011;11074;48.596;9.238;2024-02-26T10:53:07;11.73;;;2.47;;
21822;SDS011;11074;48.596;9.238;2024-02-26T10:55:47;4.85;;;2.28;;
21822;SDS011;11074;48.596;9.238;2024-02-26T10:58:17;3.70;;;1.80;;
21822;SDS011;11074;48.596;9.238;2024-02-26T11:00:43;3.30;;;1.98;;
21822;SDS011;11074;48.596;9.238;2024-02-26T11:03:10;3.85;;;2.35;;
21822;SDS011;11074;48.596;9.238;2024-02-26T11:05:36;7.28;;;2.28;;
21822;SDS011;11074;48.596;9.238;2024-02-26T11:08:04;4.05;;;2.50;;
21822;SDS011;11074;48.596;9.238;2024-02-26T11:10:30;3.35;;;1.98;;
21822;SDS011;11074;48.596;9.238;2024-02-26T11:12:59;3.10;;;1.88;;
21822;SDS011;11074;48.596;9.238;2024-02-26T11:15:25;3.90;;;2.15;;
21822;SDS011;11074;48.596;9.238;2024-02-26T11:17:50;5.28;;;2.75;;
21822;SDS011;11074;48.596;9.238;2024-02-26T11:20:17;3.47;;;2.10;;
21822;SDS011;11074;48.596;9.238;2024-02-26T11:22:44;5.93;;;2.38;;
21822;SDS011;11074;48.596;9.238;2024-02-26T11:25:09;4.73;;;2.23;;
21822;SDS011;11074;48.596;9.238;2024-02-26T11:27:58;3.67;;;1.80;;
21822;SDS011;11074;48.596;9.238;2024-02-26T11:30:26;3.08;;;1.98;;
21822;SDS011;11074;48.596;9.238;2024-02-26T11:32:56;5.10;;;1.80;;
21822;SDS011;11074;48.596;9.238;2024-02-26T11:35:22;3.30;;;1.85;;
21822;SDS011;11074;48.596;9.238;2024-02-26T11:37:54;3.60;;;1.60;;
21822;SDS011;11074;48.596;9.238;2024-02-26T11:40:22;4.55;;;1.90;;
21822;SDS011;11074;48.596;9.238;2024-02-26T11:42:49;3.63;;;1.85;;
21822;SDS011;11074;48.596;9.238;2024-02-26T11:48:04;1.92;;;1.45;;
21822;SDS011;11074;48.596;9.238;2024-02-26T11:50:33;3.28;;;1.67;;
21822;SDS011;11074;48.596;9.238;2024-02-26T11:58:59;5.68;;;3.20;;
21822;SDS011;11074;48.596;9.238;2024-02-26T12:04:13;3.60;;;2.08;;
21822;SDS011;11074;48.596;9.238;2024-02-26T12:06:45;6.28;;;3.97;;
21822;SDS011;11074;48.596;9.238;2024-02-26T12:09:11;3.33;;;1.77;;
21822;SDS011;11074;48.596;9.238;2024-02-26T12:11:38;3.15;;;1.90;;
21822;SDS011;11074;48.596;9.238;2024-02-26T12:14:05;3.67;;;2.20;;
21822;SDS011;11074;48.596;9.238;2024-02-26T12:16:36;2.78;;;1.80;;
21822;SDS011;11074;48.596;9.238;2024-02-26T12:19:07;4.03;;;2.10;;
21822;SDS011;11074;48.596;9.238;2024-02-26T12:21:37;4.93;;;1.77;;
21822;SDS011;11074;48.596;9.238;2024-02-26T12:24:09;2.35;;;1.50;;
21822;SDS011;11074;48.596;9.238;2024-02-26T12:26:38;4.95;;;2.00;;
21822;SDS011;11074;48.596;9.238;2024-02-26T12:29:04;3.47;;;1.77;;
21822;SDS011;11074;48.596;9.238;2024-02-26T12:31:29;3.75;;;1.80;;
21822;SDS011;11074;48.596;9.238;2024-02-26T12:33:56;3.80;;;1.83;;
21822;SDS011;11074;48.596;9.238;2024-02-26T12:36:21;7.93;;;4.60;;
21822;SDS011;11074;48.596;9.238;2024-02-26T12:38:48;5.05;;;3.20;;
21822;SDS011;11074;48.596;9.238;2024-02-26T12:41:15;3.38;;;1.90;;
21822;SDS011;11074;48.596;9.238;2024-02-26T12:43:41;3.97;;;2.10;;
21822;SDS011;11074;48.596;9.238;2024-02-26T12:46:06;5.32;;;1.77;;
21822;SDS011;11074;48.596;9.238;2024-02-26T12:48:31;2.65;;;1.42;;
21822;SDS011;11074;48.596;9.238;2024-02-26T12:50:57;3.00;;;1.80;;
21822;SDS011;11074;48.596;9.238;2024-02-26T12:53:22;4.63;;;1.63;;
21822;SDS011;11074;48.596;9.238;2024-02-26T12:55:48;3.67;;;1.58;;
21822;SDS011;11074;48.596;9.238;2024-02-26T12:58:13;6.75;;;3.15;;
21822;SDS011;11074;48.596;9.238;2024-02-26T13:00:40;4.68;;;2.90;;
21822;SDS011;11074;48.596;9.238;2024-02-26T13:03:06;4.90;;;2.40;;
21822;SDS011;11074;48.596;9.238;2024-02-26T13:05:31;3.38;;;1.85;;
21822;SDS011;11074;48.596;9.238;2024-02-26T13:07:58;6.97;;;2.20;;
21822;SDS011;11074;48.596;9.238;2024-02-26T13:10:24;3.72;;;1.70;;
21822;SDS011;11074;48.596;9.238;2024-02-26T13:12:50;2.85;;;1.90;;
21822;SDS011;11074;48.596;9.238;2024-02-26T13:15:17;3.38;;;1.92;;
21822;SDS011;11074;48.596;9.238;2024-02-26T13:17:44;3.25;;;2.05;;
21822;SDS011;11074;48.596;9.238;2024-02-26T13:20:13;5.65;;;1.83;;
21822;SDS011;11074;48.596;9.238;2024-02-26T13:22:49;3.00;;;1.65;;
21822;SDS011;11074;48.596;9.238;2024-02-26T13:25:14;4.00;;;1.80;;
21822;SDS011;11074;48.596;9.238;2024-02-26T13:27:45;4.97;;;1.77;;
21822;SDS011;11074;48.596;9.238;2024-02-26T13:30:11;2.87;;;1.70;;
21822;SDS011;11074;48.596;9.238;2024-02-26T13:32:38;5.95;;;2.45;;
21822;SDS011;11074;48.596;9.238;2024-02-26T13:35:08;3.28;;;1.45;;
21822;SDS011;11074;48.596;9.238;2024-02-26T13:37:35;2.28;;;1.20;;
21822;SDS011;11074;48.596;9.238;2024-02-26T13:40:04;4.20;;;1.50;;
21822;SDS011;11074;48.596;9.238;2024-02-26T13:42:30;2.97;;;1.17;;
21822;SDS011;11074;48.596;9.238;2024-02-26T13:44:56;4.38;;;1.20;;
21822;SDS011;11074;48.596;9.238;2024-02-26T13:47:21;1.85;;;1.02;;
21822;SDS011;11074;48.596;9.238;2024-02-26T13:49:46;2.83;;;0.90;;
21822;SDS011;11074;48.596;9.238;2024-02-26T13:52:11;1.50;;;1.00;;
21822;SDS011;11074;48.596;9.238;2024-02-26T13:54:37;1.48;;;1.05;;
21822;SDS011;11074;48.596;9.238;2024-02-26T13:57:03;3.22;;;1.20;;
21822;SDS011;11074;48.596;9.238;2024-02-26T13:59:29;2.03;;;1.17;;
21822;SDS011;11074;48.596;9.238;2024-02-26T14:01:54;4.07;;;1.00;;
21822;SDS011;11074;48.596;9.238;2024-02-26T14:04:20;2.85;;;1.60;;
21822;SDS011;11074;48.596;9.238;2024-02-26T14:06:45;2.00;;;1.17;;
21822;SDS011;11074;48.596;9.238;2024-02-26T14:09:11;2.00;;;1.10;;
21822;SDS011;11074;48.596;9.238;2024-02-26T14:11:36;1.63;;;1.20;;
21822;SDS011;11074;48.596;9.238;2024-02-26T14:14:02;3.28;;;1.30;;
21822;SDS011;11074;48.596;9.238;2024-02-26T14:16:28;2.58;;;0.93;;
21822;SDS011;11074;48.596;9.238;2024-02-26T14:18:53;3.10;;;1.37;;
21822;SDS011;11074;48.596;9.238;2024-02-26T14:21:18;3.07;;;1.43;;
21822;SDS011;11074;48.596;9.238;2024-02-26T14:23:43;2.70;;;1.27;;
21822;SDS011;11074;48.596;9.238;2024-02-26T14:26:09;1.60;;;1.15;;
21822;SDS011;11074;48.596;9.238;2024-02-26T14:28:35;2.58;;;1.42;;
21822;SDS011;11074;48.596;9.238;2024-02-26T14:31:00;2.50;;;1.60;;
21822;SDS011;11074;48.596;9.238;2024-02-26T14:33:25;2.78;;;1.30;;
21822;SDS011;11074;48.596;9.238;2024-02-26T14:35:51;4.50;;;1.20;;
21822;SDS011;11074;48.596;9.238;2024-02-26T14:38:16;3.70;;;1.50;;
21822;SDS011;11074;48.596;9.238;2024-02-26T14:40:41;2.50;;;1.30;;
21822;SDS011;11074;48.596;9.238;2024-02-26T14:43:07;2.90;;;1.40;;
21822;SDS011;11074;48.596;9.238;2024-02-26T14:45:35;2.72;;;1.00;;
21822;SDS011;11074;48.596;9.238;2024-02-26T14:48:00;7.05;;;1.10;;
21822;SDS011;11074;48.596;9.238;2024-02-26T14:50:25;2.35;;;1.23;;
21822;SDS011;11074;48.596;9.238;2024-02-26T14:52:50;1.10;;;0.80;;